sensor_id;sensor_type;location;lat;lon;timestamp;P1;durP1;ratioP1;P2;durP2;ratioP2
40637;SDS011;26336;44.696;10.622;2022-12-07T00:02:20;75.40;;;42.90;;
40637;SDS011;26336;44.696;10.622;2022-12-07T00:05:24;77.10;;;43.70;;
40637;SDS011;26336;44.696;10.622;2022-12-07T00:08:29;76.43;;;43.23;;
40637;SDS011;26336;44.696;10.622;2022-12-07T00:11:33;68.23;;;40.63;;
40637;SDS011;26336;44.696;10.622;2022-12-07T00:14:37;75.57;;;42.37;;
40637;SDS011;26336;44.696;10.622;2022-12-07T00:17:41;72.57;;;40.33;;
40637;SDS011;26336;44.696;10.622;2022-12-07T00:20:45;66.80;;;37.73;;
40637;SDS011;26336;44.696;10.622;2022-12-07T00:23:50;65.07;;;38.47;;
40637;SDS011;26336;44.696;10.622;2022-12-07T00:26:56;65.67;;;37.97;;
40637;SDS011;26336;44.696;10.622;2022-12-07T00:29:59;62.97;;;36.57;;
40637;SDS011;26336;44.696;10.622;2022-12-07T00:33:03;58.10;;;34.97;;
40637;SDS011;26336;44.696;10.622;2022-12-07T00:36:08;54.83;;;35.90;;
40637;SDS011;26336;44.696;10.622;2022-12-07T00:39:16;57.40;;;35.07;;
40637;SDS011;26336;44.696;10.622;2022-12-07T00:42:20;55.63;;;34.97;;
40637;SDS011;26336;44.696;10.622;2022-12-07T00:45:24;56.47;;;35.47;;
40637;SDS011;26336;44.696;10.622;2022-12-07T00:48:28;53.13;;;35.33;;
40637;SDS011;26336;44.696;10.622;2022-12-07T00:51:32;56.60;;;34.87;;
40637;SDS011;26336;44.696;10.622;2022-12-07T00:54:36;51.73;;;32.53;;
40637;SDS011;26336;44.696;10.622;2022-12-07T00:57:40;40.47;;;27.60;;
40637;SDS011;26336;44.696;10.622;2022-12-07T01:00:45;37.50;;;25.57;;
40637;SDS011;26336;44.696;10.622;2022-12-07T01:03:49;37.63;;;25.70;;
40637;SDS011;26336;44.696;10.622;2022-12-07T01:06:52;39.10;;;26.20;;
40637;SDS011;26336;44.696;10.622;2022-12-07T01:09:56;36.70;;;24.93;;
40637;SDS011;26336;44.696;10.622;2022-12-07T01:13:00;38.20;;;25.07;;
40637;SDS011;26336;44.696;10.622;2022-12-07T01:16:05;33.53;;;24.20;;
40637;SDS011;26336;44.696;10.622;2022-12-07T01:19:09;37.70;;;24.00;;
40637;SDS011;26336;44.696;10.622;2022-12-07T01:22:13;36.70;;;24.70;;
40637;SDS011;26336;44.696;10.622;2022-12-07T01:25:17;32.90;;;23.60;;
40637;SDS011;26336;44.696;10.622;2022-12-07T01:28:21;32.50;;;24.73;;
40637;SDS011;26336;44.696;10.622;2022-12-07T01:31:26;36.70;;;23.90;;
40637;SDS011;26336;44.696;10.622;2022-12-07T01:34:31;35.73;;;24.53;;
40637;SDS011;26336;44.696;10.622;2022-12-07T01:37:36;35.00;;;23.43;;
40637;SDS011;26336;44.696;10.622;2022-12-07T01:40:41;34.83;;;23.77;;
40637;SDS011;26336;44.696;10.622;2022-12-07T01:53:28;34.93;;;22.10;;
40637;SDS011;26336;44.696;10.622;2022-12-07T01:56:33;31.70;;;22.13;;
40637;SDS011;26336;44.696;10.622;2022-12-07T01:59:37;32.87;;;22.10;;
40637;SDS011;26336;44.696;10.622;2022-12-07T02:02:49;31.33;;;20.47;;
40637;SDS011;26336;44.696;10.622;2022-12-07T02:05:58;29.03;;;20.53;;
40637;SDS011;26336;44.696;10.622;2022-12-07T02:09:03;31.53;;;21.23;;
40637;SDS011;26336;44.696;10.622;2022-12-07T02:12:08;32.83;;;22.63;;
40637;SDS011;26336;44.696;10.622;2022-12-07T02:15:11;31.97;;;22.27;;
40637;SDS011;26336;44.696;10.622;2022-12-07T02:18:18;32.87;;;22.30;;
40637;SDS011;26336;44.696;10.622;2022-12-07T02:22:18;35.80;;;23.20;;
40637;SDS011;26336;44.696;10.622;2022-12-07T02:32:23;31.60;;;21.60;;
40637;SDS011;26336;44.696;10.622;2022-12-07T02:35:44;33.80;;;22.83;;
40637;SDS011;26336;44.696;10.622;2022-12-07T02:38:58;33.20;;;21.37;;
40637;SDS011;26336;44.696;10.622;2022-12-07T02:42:09;37.70;;;24.30;;
40637;SDS011;26336;44.696;10.622;2022-12-07T02:45:20;32.37;;;21.47;;
40637;SDS011;26336;44.696;10.622;2022-12-07T02:48:26;30.77;;;21.90;;
40637;SDS011;26336;44.696;10.622;2022-12-07T02:51:31;28.17;;;20.27;;
40637;SDS011;26336;44.696;10.622;2022-12-07T02:54:36;26.30;;;18.43;;
40637;SDS011;26336;44.696;10.622;2022-12-07T03:01:02;26.37;;;18.50;;
40637;SDS011;26336;44.696;10.622;2022-12-07T03:08:24;24.47;;;17.03;;
40637;SDS011;26336;44.696;10.622;2022-12-07T03:11:48;24.23;;;17.03;;
40637;SDS011;26336;44.696;10.622;2022-12-07T03:15:04;25.33;;;17.50;;
40637;SDS011;26336;44.696;10.622;2022-12-07T03:18:22;26.77;;;17.30;;
40637;SDS011;26336;44.696;10.622;2022-12-07T03:21:31;23.57;;;17.13;;
40637;SDS011;26336;44.696;10.622;2022-12-07T03:24:41;25.03;;;16.77;;
40637;SDS011;26336;44.696;10.622;2022-12-07T03:27:53;21.43;;;16.17;;
40637;SDS011;26336;44.696;10.622;2022-12-07T03:31:10;21.17;;;15.60;;
40637;SDS011;26336;44.696;10.622;2022-12-07T03:34:29;21.23;;;14.97;;
40637;SDS011;26336;44.696;10.622;2022-12-07T03:37:40;21.57;;;14.77;;
40637;SDS011;26336;44.696;10.622;2022-12-07T03:41:04;21.43;;;14.70;;
40637;SDS011;26336;44.696;10.622;2022-12-07T03:44:12;21.05;;;15.57;;
40637;SDS011;26336;44.696;10.622;2022-12-07T03:50:29;19.60;;;14.43;;
40637;SDS011;26336;44.696;10.622;2022-12-07T03:53:42;22.27;;;15.87;;
40637;SDS011;26336;44.696;10.622;2022-12-07T03:56:53;20.10;;;14.37;;
40637;SDS011;26336;44.696;10.622;2022-12-07T03:59:59;22.13;;;16.67;;
40637;SDS011;26336;44.696;10.622;2022-12-07T04:03:03;21.80;;;15.43;;
40637;SDS011;26336;44.696;10.622;2022-12-07T04:06:07;22.73;;;15.70;;
40637;SDS011;26336;44.696;10.622;2022-12-07T04:09:11;23.20;;;16.17;;
40637;SDS011;26336;44.696;10.622;2022-12-07T04:12:17;18.53;;;14.07;;
40637;SDS011;26336;44.696;10.622;2022-12-07T04:15:22;20.83;;;15.23;;
40637;SDS011;26336;44.696;10.622;2022-12-07T04:18:26;20.30;;;15.13;;
40637;SDS011;26336;44.696;10.622;2022-12-07T04:21:29;23.17;;;15.57;;
40637;SDS011;26336;44.696;10.622;2022-12-07T04:24:34;19.07;;;14.20;;
40637;SDS011;26336;44.696;10.622;2022-12-07T04:27:37;19.80;;;14.80;;
40637;SDS011;26336;44.696;10.622;2022-12-07T04:30:41;20.60;;;15.43;;
40637;SDS011;26336;44.696;10.622;2022-12-07T04:33:45;19.77;;;14.70;;
40637;SDS011;26336;44.696;10.622;2022-12-07T04:36:49;19.87;;;14.97;;
40637;SDS011;26336;44.696;10.622;2022-12-07T04:39:53;21.53;;;15.37;;
40637;SDS011;26336;44.696;10.622;2022-12-07T04:42:57;22.13;;;16.20;;
40637;SDS011;26336;44.696;10.622;2022-12-07T04:46:01;21.40;;;15.30;;
40637;SDS011;26336;44.696;10.622;2022-12-07T04:49:05;18.83;;;15.00;;
40637;SDS011;26336;44.696;10.622;2022-12-07T04:52:09;22.07;;;16.43;;
40637;SDS011;26336;44.696;10.622;2022-12-07T04:55:13;22.60;;;15.67;;
40637;SDS011;26336;44.696;10.622;2022-12-07T04:58:17;23.47;;;15.77;;
40637;SDS011;26336;44.696;10.622;2022-12-07T05:01:21;22.40;;;15.50;;
40637;SDS011;26336;44.696;10.622;2022-12-07T05:04:25;23.07;;;16.87;;
40637;SDS011;26336;44.696;10.622;2022-12-07T05:07:29;23.23;;;15.73;;
40637;SDS011;26336;44.696;10.622;2022-12-07T05:10:33;20.97;;;16.00;;
40637;SDS011;26336;44.696;10.622;2022-12-07T05:13:37;24.23;;;15.60;;
40637;SDS011;26336;44.696;10.622;2022-12-07T05:16:41;22.83;;;15.03;;
40637;SDS011;26336;44.696;10.622;2022-12-07T05:19:46;21.43;;;15.97;;
40637;SDS011;26336;44.696;10.622;2022-12-07T05:22:50;22.27;;;16.30;;
40637;SDS011;26336;44.696;10.622;2022-12-07T05:25:54;23.40;;;16.43;;
40637;SDS011;26336;44.696;10.622;2022-12-07T05:28:58;22.57;;;15.77;;
40637;SDS011;26336;44.696;10.622;2022-12-07T05:32:03;20.73;;;15.90;;
40637;SDS011;26336;44.696;10.622;2022-12-07T05:35:07;19.57;;;15.30;;
40637;SDS011;26336;44.696;10.622;2022-12-07T05:38:11;22.67;;;15.93;;
40637;SDS011;26336;44.696;10.622;2022-12-07T05:41:16;20.80;;;15.17;;
40637;SDS011;26336;44.696;10.622;2022-12-07T05:44:40;21.43;;;15.53;;
40637;SDS011;26336;44.696;10.622;2022-12-07T05:47:45;21.70;;;15.67;;
40637;SDS011;26336;44.696;10.622;2022-12-07T05:50:49;22.70;;;15.57;;
40637;SDS011;26336;44.696;10.622;2022-12-07T05:53:53;24.07;;;16.60;;
40637;SDS011;26336;44.696;10.622;2022-12-07T05:56:57;22.10;;;15.90;;
40637;SDS011;26336;44.696;10.622;2022-12-07T06:00:01;22.70;;;16.60;;
40637;SDS011;26336;44.696;10.622;2022-12-07T06:03:15;21.97;;;15.80;;
40637;SDS011;26336;44.696;10.622;2022-12-07T06:06:19;25.73;;;17.43;;
40637;SDS011;26336;44.696;10.622;2022-12-07T06:09:23;24.50;;;17.50;;
40637;SDS011;26336;44.696;10.622;2022-12-07T06:12:28;24.77;;;18.07;;
40637;SDS011;26336;44.696;10.622;2022-12-07T06:15:37;22.93;;;17.17;;
40637;SDS011;26336;44.696;10.622;2022-12-07T06:18:41;24.53;;;17.30;;
40637;SDS011;26336;44.696;10.622;2022-12-07T06:21:45;26.00;;;18.37;;
40637;SDS011;26336;44.696;10.622;2022-12-07T06:24:49;22.60;;;16.87;;
40637;SDS011;26336;44.696;10.622;2022-12-07T06:27:53;25.17;;;17.40;;
40637;SDS011;26336;44.696;10.622;2022-12-07T06:31:02;24.70;;;17.37;;
40637;SDS011;26336;44.696;10.622;2022-12-07T06:34:07;24.63;;;17.80;;
40637;SDS011;26336;44.696;10.622;2022-12-07T06:37:17;30.17;;;19.27;;
40637;SDS011;26336;44.696;10.622;2022-12-07T06:40:21;25.77;;;18.07;;
40637;SDS011;26336;44.696;10.622;2022-12-07T06:43:25;24.47;;;18.27;;
40637;SDS011;26336;44.696;10.622;2022-12-07T06:46:29;26.77;;;18.27;;
40637;SDS011;26336;44.696;10.622;2022-12-07T06:49:34;30.50;;;19.37;;
40637;SDS011;26336;44.696;10.622;2022-12-07T06:52:39;28.63;;;18.73;;
40637;SDS011;26336;44.696;10.622;2022-12-07T06:55:42;25.33;;;17.83;;
40637;SDS011;26336;44.696;10.622;2022-12-07T06:58:47;24.10;;;17.30;;
40637;SDS011;26336;44.696;10.622;2022-12-07T07:01:51;28.27;;;17.57;;
40637;SDS011;26336;44.696;10.622;2022-12-07T07:04:55;23.23;;;16.53;;
40637;SDS011;26336;44.696;10.622;2022-12-07T07:07:59;26.07;;;17.10;;
40637;SDS011;26336;44.696;10.622;2022-12-07T07:11:04;24.07;;;17.20;;
40637;SDS011;26336;44.696;10.622;2022-12-07T07:14:08;26.67;;;18.37;;
40637;SDS011;26336;44.696;10.622;2022-12-07T07:17:12;26.77;;;18.97;;
40637;SDS011;26336;44.696;10.622;2022-12-07T07:20:16;24.33;;;18.43;;
40637;SDS011;26336;44.696;10.622;2022-12-07T07:23:21;29.33;;;19.57;;
40637;SDS011;26336;44.696;10.622;2022-12-07T07:26:25;31.50;;;21.60;;
40637;SDS011;26336;44.696;10.622;2022-12-07T07:29:29;29.97;;;20.00;;
40637;SDS011;26336;44.696;10.622;2022-12-07T07:32:33;31.13;;;21.00;;
40637;SDS011;26336;44.696;10.622;2022-12-07T07:35:38;29.57;;;20.00;;
40637;SDS011;26336;44.696;10.622;2022-12-07T07:38:42;28.80;;;21.07;;
40637;SDS011;26336;44.696;10.622;2022-12-07T07:41:46;30.63;;;21.03;;
40637;SDS011;26336;44.696;10.622;2022-12-07T07:45:00;34.03;;;21.83;;
40637;SDS011;26336;44.696;10.622;2022-12-07T07:48:04;33.83;;;22.60;;
40637;SDS011;26336;44.696;10.622;2022-12-07T07:51:08;31.37;;;20.93;;
40637;SDS011;26336;44.696;10.622;2022-12-07T07:54:12;33.27;;;21.57;;
40637;SDS011;26336;44.696;10.622;2022-12-07T07:57:16;31.63;;;21.90;;
40637;SDS011;26336;44.696;10.622;2022-12-07T08:00:21;31.63;;;22.30;;
40637;SDS011;26336;44.696;10.622;2022-12-07T08:03:25;34.47;;;24.80;;
40637;SDS011;26336;44.696;10.622;2022-12-07T08:06:29;36.80;;;24.53;;
40637;SDS011;26336;44.696;10.622;2022-12-07T08:09:33;37.93;;;25.77;;
40637;SDS011;26336;44.696;10.622;2022-12-07T08:12:41;38.67;;;25.93;;
40637;SDS011;26336;44.696;10.622;2022-12-07T08:16:05;40.30;;;26.37;;
40637;SDS011;26336;44.696;10.622;2022-12-07T08:19:11;47.83;;;30.87;;
40637;SDS011;26336;44.696;10.622;2022-12-07T08:22:15;49.13;;;30.87;;
40637;SDS011;26336;44.696;10.622;2022-12-07T08:25:20;48.70;;;31.47;;
40637;SDS011;26336;44.696;10.622;2022-12-07T08:28:25;44.43;;;30.03;;
40637;SDS011;26336;44.696;10.622;2022-12-07T08:31:29;44.63;;;30.67;;
40637;SDS011;26336;44.696;10.622;2022-12-07T08:34:33;41.83;;;28.97;;
40637;SDS011;26336;44.696;10.622;2022-12-07T08:37:37;47.07;;;31.43;;
40637;SDS011;26336;44.696;10.622;2022-12-07T08:40:41;45.13;;;31.87;;
40637;SDS011;26336;44.696;10.622;2022-12-07T08:43:45;47.03;;;32.23;;
40637;SDS011;26336;44.696;10.622;2022-12-07T08:46:50;49.27;;;32.63;;
40637;SDS011;26336;44.696;10.622;2022-12-07T08:49:59;50.20;;;33.60;;
40637;SDS011;26336;44.696;10.622;2022-12-07T08:53:07;53.70;;;34.70;;
40637;SDS011;26336;44.696;10.622;2022-12-07T08:56:10;46.23;;;31.83;;
40637;SDS011;26336;44.696;10.622;2022-12-07T08:59:14;48.10;;;32.77;;
40637;SDS011;26336;44.696;10.622;2022-12-07T09:02:21;46.70;;;32.90;;
40637;SDS011;26336;44.696;10.622;2022-12-07T09:05:25;46.37;;;33.47;;
40637;SDS011;26336;44.696;10.622;2022-12-07T09:08:40;46.17;;;33.13;;
40637;SDS011;26336;44.696;10.622;2022-12-07T09:11:47;47.07;;;32.50;;
40637;SDS011;26336;44.696;10.622;2022-12-07T09:14:51;45.40;;;31.23;;
40637;SDS011;26336;44.696;10.622;2022-12-07T09:17:55;46.07;;;30.27;;
40637;SDS011;26336;44.696;10.622;2022-12-07T09:20:59;45.83;;;29.83;;
40637;SDS011;26336;44.696;10.622;2022-12-07T09:24:03;44.60;;;30.90;;
40637;SDS011;26336;44.696;10.622;2022-12-07T09:27:07;51.67;;;30.83;;
40637;SDS011;26336;44.696;10.622;2022-12-07T09:30:11;46.90;;;31.87;;
40637;SDS011;26336;44.696;10.622;2022-12-07T09:33:15;45.07;;;31.50;;
40637;SDS011;26336;44.696;10.622;2022-12-07T09:36:19;45.10;;;30.03;;
40637;SDS011;26336;44.696;10.622;2022-12-07T09:39:23;43.00;;;31.13;;
40637;SDS011;26336;44.696;10.622;2022-12-07T09:42:32;43.47;;;30.27;;
40637;SDS011;26336;44.696;10.622;2022-12-07T09:45:42;41.27;;;30.67;;
40637;SDS011;26336;44.696;10.622;2022-12-07T09:48:49;41.77;;;27.97;;
40637;SDS011;26336;44.696;10.622;2022-12-07T09:52:40;40.93;;;28.80;;
40637;SDS011;26336;44.696;10.622;2022-12-07T09:55:25;40.87;;;27.17;;
40637;SDS011;26336;44.696;10.622;2022-12-07T09:58:32;35.40;;;26.50;;
40637;SDS011;26336;44.696;10.622;2022-12-07T10:01:38;37.03;;;26.17;;
40637;SDS011;26336;44.696;10.622;2022-12-07T10:04:42;33.60;;;25.50;;
40637;SDS011;26336;44.696;10.622;2022-12-07T10:07:48;37.37;;;27.10;;
40637;SDS011;26336;44.696;10.622;2022-12-07T10:10:53;41.57;;;28.57;;
40637;SDS011;26336;44.696;10.622;2022-12-07T10:14:11;38.80;;;27.03;;
40637;SDS011;26336;44.696;10.622;2022-12-07T10:20:30;38.92;;;28.95;;
40637;SDS011;26336;44.696;10.622;2022-12-07T10:23:35;41.53;;;28.90;;
40637;SDS011;26336;44.696;10.622;2022-12-07T10:29:50;48.60;;;32.83;;
40637;SDS011;26336;44.696;10.622;2022-12-07T10:32:55;44.47;;;29.87;;
40637;SDS011;26336;44.696;10.622;2022-12-07T10:36:00;37.87;;;28.20;;
40637;SDS011;26336;44.696;10.622;2022-12-07T10:39:18;36.83;;;27.73;;
40637;SDS011;26336;44.696;10.622;2022-12-07T10:42:30;37.63;;;27.30;;
40637;SDS011;26336;44.696;10.622;2022-12-07T10:45:35;40.63;;;29.47;;
40637;SDS011;26336;44.696;10.622;2022-12-07T10:49:10;41.90;;;29.37;;
40637;SDS011;26336;44.696;10.622;2022-12-07T11:02:24;38.20;;;26.97;;
40637;SDS011;26336;44.696;10.622;2022-12-07T11:05:48;41.57;;;28.77;;
40637;SDS011;26336;44.696;10.622;2022-12-07T11:09:26;36.37;;;27.10;;
40637;SDS011;26336;44.696;10.622;2022-12-07T11:12:50;39.47;;;28.00;;
40637;SDS011;26336;44.696;10.622;2022-12-07T11:16:23;40.37;;;28.40;;
40637;SDS011;26336;44.696;10.622;2022-12-07T11:22:50;37.67;;;28.47;;
40637;SDS011;26336;44.696;10.622;2022-12-07T11:26:14;40.77;;;27.87;;
40637;SDS011;26336;44.696;10.622;2022-12-07T11:39:46;41.95;;;29.25;;
40637;SDS011;26336;44.696;10.622;2022-12-07T11:43:00;37.27;;;28.20;;
40637;SDS011;26336;44.696;10.622;2022-12-07T11:46:14;39.73;;;28.47;;
40637;SDS011;26336;44.696;10.622;2022-12-07T11:50:03;41.63;;;29.87;;
40637;SDS011;26336;44.696;10.622;2022-12-07T12:02:51;39.35;;;28.63;;
40637;SDS011;26336;44.696;10.622;2022-12-07T12:06:17;35.63;;;26.83;;
40637;SDS011;26336;44.696;10.622;2022-12-07T12:09:28;41.50;;;27.40;;
40637;SDS011;26336;44.696;10.622;2022-12-07T12:12:55;37.67;;;27.30;;
40637;SDS011;26336;44.696;10.622;2022-12-07T12:19:58;38.87;;;26.53;;
40637;SDS011;26336;44.696;10.622;2022-12-07T12:23:44;35.83;;;25.27;;
40637;SDS011;26336;44.696;10.622;2022-12-07T12:26:50;34.93;;;25.00;;
40637;SDS011;26336;44.696;10.622;2022-12-07T12:33:43;36.57;;;26.07;;
40637;SDS011;26336;44.696;10.622;2022-12-07T12:36:49;35.90;;;26.70;;
40637;SDS011;26336;44.696;10.622;2022-12-07T12:40:54;34.70;;;25.73;;
40637;SDS011;26336;44.696;10.622;2022-12-07T12:43:45;35.72;;;26.60;;
40637;SDS011;26336;44.696;10.622;2022-12-07T12:50:21;36.83;;;26.40;;
40637;SDS011;26336;44.696;10.622;2022-12-07T12:53:30;37.23;;;25.90;;
40637;SDS011;26336;44.696;10.622;2022-12-07T13:00:19;33.47;;;26.23;;
40637;SDS011;26336;44.696;10.622;2022-12-07T13:03:29;34.17;;;26.60;;
40637;SDS011;26336;44.696;10.622;2022-12-07T13:06:35;37.93;;;26.43;;
40637;SDS011;26336;44.696;10.622;2022-12-07T13:09:42;34.93;;;25.90;;
40637;SDS011;26336;44.696;10.622;2022-12-07T13:20:39;35.17;;;24.27;;
40637;SDS011;26336;44.696;10.622;2022-12-07T13:22:55;35.27;;;26.33;;
40637;SDS011;26336;44.696;10.622;2022-12-07T13:26:16;33.40;;;24.47;;
40637;SDS011;26336;44.696;10.622;2022-12-07T13:29:25;36.13;;;25.67;;
40637;SDS011;26336;44.696;10.622;2022-12-07T13:32:30;31.73;;;23.53;;
40637;SDS011;26336;44.696;10.622;2022-12-07T13:35:35;28.73;;;22.57;;
40637;SDS011;26336;44.696;10.622;2022-12-07T13:38:48;32.03;;;21.70;;
40637;SDS011;26336;44.696;10.622;2022-12-07T13:41:59;31.13;;;22.27;;
40637;SDS011;26336;44.696;10.622;2022-12-07T13:48:53;30.67;;;22.10;;
40637;SDS011;26336;44.696;10.622;2022-12-07T13:52:15;32.53;;;22.93;;
40637;SDS011;26336;44.696;10.622;2022-12-07T13:55:26;33.57;;;22.73;;
40637;SDS011;26336;44.696;10.622;2022-12-07T13:58:32;31.47;;;22.07;;
40637;SDS011;26336;44.696;10.622;2022-12-07T14:01:36;30.33;;;21.00;;
40637;SDS011;26336;44.696;10.622;2022-12-07T14:04:40;30.73;;;20.70;;
40637;SDS011;26336;44.696;10.622;2022-12-07T14:08:03;28.83;;;19.80;;
40637;SDS011;26336;44.696;10.622;2022-12-07T14:11:12;29.93;;;20.83;;
40637;SDS011;26336;44.696;10.622;2022-12-07T14:14:25;28.03;;;21.43;;
40637;SDS011;26336;44.696;10.622;2022-12-07T14:17:31;28.67;;;21.07;;
40637;SDS011;26336;44.696;10.622;2022-12-07T14:23:43;29.83;;;21.23;;
40637;SDS011;26336;44.696;10.622;2022-12-07T14:26:48;28.73;;;20.47;;
40637;SDS011;26336;44.696;10.622;2022-12-07T14:29:53;30.67;;;21.03;;
40637;SDS011;26336;44.696;10.622;2022-12-07T14:32:59;29.33;;;21.67;;
40637;SDS011;26336;44.696;10.622;2022-12-07T14:36:03;28.57;;;20.60;;
40637;SDS011;26336;44.696;10.622;2022-12-07T14:39:08;30.67;;;22.57;;
40637;SDS011;26336;44.696;10.622;2022-12-07T14:42:12;31.33;;;21.80;;
40637;SDS011;26336;44.696;10.622;2022-12-07T14:45:17;33.70;;;23.37;;
40637;SDS011;26336;44.696;10.622;2022-12-07T14:48:25;29.40;;;21.93;;
40637;SDS011;26336;44.696;10.622;2022-12-07T14:51:29;32.50;;;22.40;;
40637;SDS011;26336;44.696;10.622;2022-12-07T14:54:33;31.83;;;21.90;;
40637;SDS011;26336;44.696;10.622;2022-12-07T14:57:37;30.43;;;21.63;;
40637;SDS011;26336;44.696;10.622;2022-12-07T15:00:41;30.83;;;20.40;;
40637;SDS011;26336;44.696;10.622;2022-12-07T15:03:46;31.67;;;22.63;;
40637;SDS011;26336;44.696;10.622;2022-12-07T15:07:00;32.37;;;23.60;;
40637;SDS011;26336;44.696;10.622;2022-12-07T15:10:13;35.03;;;24.97;;
40637;SDS011;26336;44.696;10.622;2022-12-07T15:13:23;34.97;;;24.70;;
40637;SDS011;26336;44.696;10.622;2022-12-07T15:16:45;34.93;;;23.77;;
40637;SDS011;26336;44.696;10.622;2022-12-07T15:19:49;32.73;;;22.03;;
40637;SDS011;26336;44.696;10.622;2022-12-07T15:22:52;31.40;;;21.70;;
40637;SDS011;26336;44.696;10.622;2022-12-07T15:25:56;31.63;;;22.47;;
40637;SDS011;26336;44.696;10.622;2022-12-07T15:29:00;32.50;;;23.37;;
40637;SDS011;26336;44.696;10.622;2022-12-07T15:32:04;33.80;;;24.50;;
40637;SDS011;26336;44.696;10.622;2022-12-07T15:35:08;36.80;;;24.53;;
40637;SDS011;26336;44.696;10.622;2022-12-07T15:38:12;34.27;;;23.50;;
40637;SDS011;26336;44.696;10.622;2022-12-07T15:41:16;38.87;;;26.53;;
40637;SDS011;26336;44.696;10.622;2022-12-07T15:44:20;40.43;;;26.37;;
40637;SDS011;26336;44.696;10.622;2022-12-07T15:47:43;46.28;;;29.75;;
40637;SDS011;26336;44.696;10.622;2022-12-07T15:50:48;49.47;;;31.93;;
40637;SDS011;26336;44.696;10.622;2022-12-07T15:53:52;51.63;;;33.03;;
40637;SDS011;26336;44.696;10.622;2022-12-07T15:56:56;45.87;;;28.97;;
40637;SDS011;26336;44.696;10.622;2022-12-07T16:00:01;44.50;;;27.87;;
40637;SDS011;26336;44.696;10.622;2022-12-07T16:03:07;42.90;;;28.43;;
40637;SDS011;26336;44.696;10.622;2022-12-07T16:06:11;45.47;;;27.93;;
40637;SDS011;26336;44.696;10.622;2022-12-07T16:09:15;39.80;;;27.27;;
40637;SDS011;26336;44.696;10.622;2022-12-07T16:12:19;44.40;;;27.07;;
40637;SDS011;26336;44.696;10.622;2022-12-07T16:15:23;42.43;;;27.03;;
40637;SDS011;26336;44.696;10.622;2022-12-07T16:18:28;40.57;;;26.87;;
40637;SDS011;26336;44.696;10.622;2022-12-07T16:21:33;39.70;;;25.57;;
40637;SDS011;26336;44.696;10.622;2022-12-07T16:24:38;46.23;;;28.77;;
40637;SDS011;26336;44.696;10.622;2022-12-07T16:27:42;47.17;;;28.37;;
40637;SDS011;26336;44.696;10.622;2022-12-07T16:30:46;42.40;;;27.33;;
40637;SDS011;26336;44.696;10.622;2022-12-07T16:33:52;43.67;;;27.87;;
40637;SDS011;26336;44.696;10.622;2022-12-07T16:36:57;43.47;;;27.47;;
40637;SDS011;26336;44.696;10.622;2022-12-07T16:40:02;41.13;;;27.23;;
40637;SDS011;26336;44.696;10.622;2022-12-07T16:43:06;43.33;;;28.40;;
40637;SDS011;26336;44.696;10.622;2022-12-07T16:46:10;40.80;;;27.27;;
40637;SDS011;26336;44.696;10.622;2022-12-07T16:49:14;43.97;;;28.17;;
40637;SDS011;26336;44.696;10.622;2022-12-07T16:52:19;40.97;;;27.30;;
40637;SDS011;26336;44.696;10.622;2022-12-07T16:55:23;40.23;;;27.17;;
40637;SDS011;26336;44.696;10.622;2022-12-07T16:58:27;46.10;;;27.67;;
40637;SDS011;26336;44.696;10.622;2022-12-07T17:01:31;45.00;;;26.50;;
40637;SDS011;26336;44.696;10.622;2022-12-07T17:04:37;46.90;;;29.03;;
40637;SDS011;26336;44.696;10.622;2022-12-07T17:07:45;48.80;;;30.00;;
40637;SDS011;26336;44.696;10.622;2022-12-07T17:10:49;44.20;;;27.93;;
40637;SDS011;26336;44.696;10.622;2022-12-07T17:13:53;44.43;;;28.87;;
40637;SDS011;26336;44.696;10.622;2022-12-07T17:17:16;46.15;;;28.50;;
40637;SDS011;26336;44.696;10.622;2022-12-07T17:20:20;47.03;;;28.37;;
40637;SDS011;26336;44.696;10.622;2022-12-07T17:23:25;41.20;;;26.87;;
40637;SDS011;26336;44.696;10.622;2022-12-07T17:26:30;47.73;;;29.47;;
40637;SDS011;26336;44.696;10.622;2022-12-07T17:29:34;46.57;;;28.33;;
40637;SDS011;26336;44.696;10.622;2022-12-07T17:32:38;43.97;;;27.30;;
40637;SDS011;26336;44.696;10.622;2022-12-07T17:35:43;47.07;;;28.13;;
40637;SDS011;26336;44.696;10.622;2022-12-07T17:38:47;42.07;;;26.93;;
40637;SDS011;26336;44.696;10.622;2022-12-07T17:41:52;49.40;;;29.27;;
40637;SDS011;26336;44.696;10.622;2022-12-07T17:45:14;43.15;;;27.88;;
40637;SDS011;26336;44.696;10.622;2022-12-07T17:48:19;52.10;;;30.07;;
40637;SDS011;26336;44.696;10.622;2022-12-07T17:51:23;47.00;;;28.30;;
40637;SDS011;26336;44.696;10.622;2022-12-07T17:54:46;55.55;;;30.17;;
40637;SDS011;26336;44.696;10.622;2022-12-07T17:57:50;48.10;;;28.77;;
40637;SDS011;26336;44.696;10.622;2022-12-07T18:00:54;51.63;;;31.63;;
40637;SDS011;26336;44.696;10.622;2022-12-07T18:03:58;48.67;;;29.60;;
40637;SDS011;26336;44.696;10.622;2022-12-07T18:07:02;51.23;;;29.97;;
40637;SDS011;26336;44.696;10.622;2022-12-07T18:10:09;52.23;;;31.27;;
40637;SDS011;26336;44.696;10.622;2022-12-07T18:13:13;50.67;;;30.40;;
40637;SDS011;26336;44.696;10.622;2022-12-07T18:16:36;50.97;;;30.47;;
40637;SDS011;26336;44.696;10.622;2022-12-07T18:19:40;48.60;;;30.77;;
40637;SDS011;26336;44.696;10.622;2022-12-07T18:22:44;52.43;;;28.57;;
40637;SDS011;26336;44.696;10.622;2022-12-07T18:25:51;45.50;;;28.17;;
40637;SDS011;26336;44.696;10.622;2022-12-07T18:28:57;44.13;;;27.73;;
40637;SDS011;26336;44.696;10.622;2022-12-07T18:32:02;53.40;;;30.17;;
40637;SDS011;26336;44.696;10.622;2022-12-07T18:35:07;45.97;;;28.20;;
40637;SDS011;26336;44.696;10.622;2022-12-07T18:38:15;50.83;;;30.83;;
40637;SDS011;26336;44.696;10.622;2022-12-07T18:41:20;50.63;;;29.73;;
40637;SDS011;26336;44.696;10.622;2022-12-07T18:44:24;44.10;;;26.67;;
40637;SDS011;26336;44.696;10.622;2022-12-07T18:47:27;48.37;;;27.97;;
40637;SDS011;26336;44.696;10.622;2022-12-07T18:50:33;41.53;;;26.03;;
40637;SDS011;26336;44.696;10.622;2022-12-07T18:53:38;45.00;;;25.73;;
40637;SDS011;26336;44.696;10.622;2022-12-07T18:56:41;45.70;;;28.77;;
40637;SDS011;26336;44.696;10.622;2022-12-07T18:59:45;45.23;;;29.13;;
40637;SDS011;26336;44.696;10.622;2022-12-07T19:02:50;48.30;;;29.53;;
40637;SDS011;26336;44.696;10.622;2022-12-07T19:05:56;50.93;;;30.70;;
40637;SDS011;26336;44.696;10.622;2022-12-07T19:09:00;51.63;;;29.73;;
40637;SDS011;26336;44.696;10.622;2022-12-07T19:12:05;53.07;;;29.83;;
40637;SDS011;26336;44.696;10.622;2022-12-07T19:15:09;52.27;;;29.83;;
40637;SDS011;26336;44.696;10.622;2022-12-07T19:18:14;52.53;;;32.63;;
40637;SDS011;26336;44.696;10.622;2022-12-07T19:21:18;49.73;;;28.73;;
40637;SDS011;26336;44.696;10.622;2022-12-07T19:24:23;56.70;;;32.37;;
40637;SDS011;26336;44.696;10.622;2022-12-07T19:27:26;52.83;;;32.50;;
40637;SDS011;26336;44.696;10.622;2022-12-07T19:30:32;57.33;;;30.50;;
40637;SDS011;26336;44.696;10.622;2022-12-07T19:33:36;48.73;;;29.93;;
40637;SDS011;26336;44.696;10.622;2022-12-07T19:36:41;49.93;;;30.70;;